Aviation Digital Data Service (ADDS)

Output produced by METARs form (2236 UTC 30 March 2017)
found at http://www.aviationweather.gov/adds/metars/
 
RCTP 302230Z 16007KT 140V200 4000 BR FEW010 BKN030 BKN100 21/18 Q1013 NOSIG RMK A2993
TAF RCTP 301704Z 3018/3124 22005KT 3200 BR SCT006 BKN032 
     TEMPO 3018/3022 34005KT 1800 BR FEW003 BKN005 BKN011 
     BECMG 3022/3024 24010KT 
     TEMPO 3100/3105 24018KT 2400 BR FEW005 BKN011 
     BECMG 3105/3107 03018KT 5000 RA FEW005 BKN012 BKN025 
     TEMPO 3107/3113 02025G35KT 2800 SHRA SCT004 BKN007 FEW010CB BKN020 
     TEMPO 3116/3122 36015KT 3200 SHRA SCT004 BKN008 BKN015
       
RCMQ 302230Z 15004KT 7000 FEW010 BKN050 20/19 Q1014 NOSIG RMK A2995
TAF RCMQ 301700Z 3018/3118 18010KT 8000 FEW010 BKN050 TX24/3105Z TN17/3021Z 
     BECMG 3105/3108 24010KT 5000 -RA BR FEW008 BKN020 BKN040 
     BECMG 3111/3114 36010KT 
     BECMG 3115/3117 36014KT 8000 FEW010 SCT020 BKN050
       
RCFN 302230Z 33004KT 9999 FEW018 SCT025 BKN040 20/17 Q1014 NOSIG RMK A2995
TAF RCFN 301709Z 3018/3118 20005KT 9999 FEW015 BKN032 
     TEMPO 3018/3024 33005KT 
     TEMPO 3101/3107 21010KT 
     BECMG 3108/3110 02010KT FEW010 BKN020 BKN040 
     TEMPO 3116/3118 4000 RA
       
RCKH 302230Z 17008KT 130V220 9999 FEW016 25/20 Q1014 NOSIG RMK A2995
TAF RCKH 301704Z 3018/3124 03005KT 6000 FEW015 BKN032 
     TEMPO 3019/3024 09005KT 3200 BR 
     TEMPO 3102/3108 25008KT 
     BECMG 3108/3110 32008KT 
     TEMPO 3112/3117 35008KT 4000 BR 
     TEMPO 3117/3124 36012KT 4000 SHRA FEW010 BKN017 BKN040
       
RCSS 302230Z VRB01KT 9000 NSC 20/16 Q1013 NOSIG RMK A2993
TAF RCSS 301704Z 3018/3118 30005KT 7000 FEW015 BKN032 
     TEMPO 3020/3024 4000 BR FEW010 BKN020 BKN030 
     BECMG 3102/3104 28005KT FEW008 BKN017 BKN035 
     TEMPO 3104/3110 31012KT 2800 SHRA SCT006 FEW008CB BKN011 BKN025 
     TEMPO 3112/3118 4000 SHRA FEW006 BKN012 BKN020
       
RCNN 302230Z 06002KT 6000 FEW012 SCT200 20/18 Q1014 NOSIG RMK A2994
TAF RCNN 301700Z 3018/3118 04004KT 5000 BR FEW012 BKN050 TX28/3106Z TN18/3021Z 
     BECMG 3021/3024 3200 BR 
     BECMG 3101/3104 6000 FEW012 BKN060 
     BECMG 3106/3109 27006KT 8000 BECNG 3110/3112 34006KT 
     TEMPO 3113/3117 6000 -RA FEW012 BKN050